Time;durP1;ratioP1;P1;durP2;ratioP2;P2;SDS_P1;SDS_P2;PMS_P1;PMS_P2;Temp;Humidity;BMP_temperature;BMP_pressure;BME280_temperature;BME280_humidity;BME280_pressure;Samples;Min_cycle;Max_cycle;Signal;HPM_P1;HPM_P2
2021/01/24 00:00:24;;;;;;;4.20;3.10;;;;;;;4.19;100.00;97974.14;639785;221;24833;-75
2021/01/24 00:02:52;;;;;;;4.17;2.80;;;;;;;4.21;100.00;97963.20;636337;225;27249;-75
2021/01/24 00:05:20;;;;;;;4.30;3.90;;;;;;;4.22;100.00;97969.15;629830;226;24847;-75
2021/01/24 00:07:48;;;;;;;3.30;2.83;;;;;;;4.29;100.00;97969.64;632087;226;25018;-75
2021/01/24 00:10:17;;;;;;;3.20;2.90;;;;;;;4.35;100.00;97963.04;635279;221;32681;-75
2021/01/24 00:12:44;;;;;;;5.07;2.60;;;;;;;4.11;100.00;97965.95;635307;225;24913;-75
2021/01/24 00:15:12;;;;;;;4.87;3.10;;;;;;;4.31;100.00;97970.77;620978;225;33206;-75
2021/01/24 00:17:40;;;;;;;3.00;2.63;;;;;;;4.24;100.00;97969.33;631514;225;26917;-75
2021/01/24 00:20:10;;;;;;;3.37;2.10;;;;;;;4.31;100.00;97978.00;639997;221;24777;-75
2021/01/24 00:22:37;;;;;;;4.53;2.60;;;;;;;4.27;100.00;97974.16;629440;225;24838;-75
2021/01/24 00:25:06;;;;;;;2.63;2.43;;;;;;;4.32;100.00;97976.23;630499;225;24823;-75
2021/01/24 00:27:34;;;;;;;3.17;2.80;;;;;;;4.28;100.00;97974.95;636345;226;24836;-75
2021/01/24 00:30:02;;;;;;;4.73;2.53;;;;;;;4.18;100.00;97972.05;641678;221;25068;-75
2021/01/24 00:32:30;;;;;;;5.37;2.90;;;;;;;4.46;100.00;97974.30;630599;226;32830;-75
2021/01/24 00:34:58;;;;;;;6.17;3.00;;;;;;;4.37;100.00;97977.86;630010;226;23763;-76
2021/01/24 00:37:25;;;;;;;4.37;3.53;;;;;;;4.18;100.00;97976.39;630469;225;24850;-75
2021/01/24 00:39:53;;;;;;;3.77;3.07;;;;;;;4.22;100.00;97985.87;641672;221;24820;-75
2021/01/24 00:42:21;;;;;;;5.33;3.50;;;;;;;4.19;100.00;97988.28;641564;221;24803;-74
2021/01/24 00:44:49;;;;;;;3.80;3.40;;;;;;;4.13;100.00;97984.59;634420;224;24836;-75
2021/01/24 00:47:17;;;;;;;5.40;3.40;;;;;;;4.08;100.00;97983.45;643833;220;24795;-72
2021/01/24 00:49:45;;;;;;;7.37;3.40;;;;;;;4.02;100.00;97996.47;642305;220;24793;-75
2021/01/24 00:52:13;;;;;;;4.90;3.27;;;;;;;4.02;100.00;97987.95;632855;225;24803;-75
2021/01/24 00:54:41;;;;;;;3.53;3.23;;;;;;;4.18;100.00;97992.62;640827;221;24799;-74
2021/01/24 00:57:09;;;;;;;3.37;3.07;;;;;;;4.12;100.00;97995.84;646748;221;24812;-75
2021/01/24 00:59:37;;;;;;;3.20;2.90;;;;;;;3.98;100.00;97997.76;630716;226;24881;-74
2021/01/24 01:02:05;;;;;;;3.80;3.40;;;;;;;4.05;100.00;98001.77;628209;226;24894;-74
2021/01/24 01:04:32;;;;;;;3.23;2.90;;;;;;;4.08;100.00;97992.00;630858;226;24882;-74
2021/01/24 01:07:00;;;;;;;5.17;3.22;;;;;;;4.33;100.00;97993.28;638193;221;32910;-74
2021/01/24 01:09:28;;;;;;;3.80;3.40;;;;;;;4.20;100.00;97990.38;624182;225;32981;-74
2021/01/24 01:11:56;;;;;;;5.95;3.10;;;;;;;4.26;100.00;97997.47;621676;225;32732;-74
2021/01/24 01:14:24;;;;;;;4.40;3.67;;;;;;;4.23;100.00;98007.60;646958;221;23679;-74
2021/01/24 01:16:52;;;;;;;4.27;2.93;;;;;;;4.07;100.00;98006.27;636833;223;24835;-73
2021/01/24 01:19:20;;;;;;;4.50;2.73;;;;;;;4.13;100.00;98014.66;634045;226;28106;-74
2021/01/24 01:21:48;;;;;;;4.50;2.80;;;;;;;4.20;100.00;98013.52;645640;221;24801;-75
2021/01/24 01:24:16;;;;;;;4.07;2.73;;;;;;;4.09;100.00;98022.38;643557;221;24847;-74
2021/01/24 01:26:44;;;;;;;4.10;2.60;;;;;;;3.97;100.00;98035.20;627181;226;25116;-74
2021/01/24 01:29:12;;;;;;;2.87;2.47;;;;;;;3.72;100.00;98037.70;625905;225;24879;-74
2021/01/24 01:31:40;;;;;;;3.65;2.60;;;;;;;3.62;100.00;98050.34;625579;225;32841;-74
2021/01/24 01:34:08;;;;;;;8.53;2.50;;;;;;;3.56;100.00;98050.48;641343;221;23675;-74
2021/01/24 01:36:36;;;;;;;1.57;1.47;;;;;;;3.45;100.00;98056.70;628089;226;24821;-74
2021/01/24 01:39:04;;;;;;;1.00;1.00;;;;;;;3.44;100.00;98063.27;640369;221;33000;-74
2021/01/24 01:41:32;;;;;;;1.07;0.97;;;;;;;3.46;100.00;98062.16;643314;221;23677;-74
2021/01/24 01:44:00;;;;;;;0.80;0.80;;;;;;;3.37;100.00;98067.40;638692;225;25054;-74
2021/01/24 01:46:28;;;;;;;0.80;0.80;;;;;;;3.28;100.00;98075.56;645651;221;24843;-74
2021/01/24 01:48:56;;;;;;;0.70;0.70;;;;;;;3.12;100.00;98064.71;643967;222;26966;-74
2021/01/24 01:51:24;;;;;;;0.73;0.67;;;;;;;3.00;100.00;98071.05;646272;221;24814;-74
2021/01/24 01:53:51;;;;;;;0.70;0.70;;;;;;;3.00;100.00;98074.09;639134;221;24778;-74
2021/01/24 01:56:19;;;;;;;4.13;0.80;;;;;;;2.98;100.00;98081.95;635451;223;24824;-74
2021/01/24 01:58:47;;;;;;;0.63;0.63;;;;;;;2.97;100.00;98097.03;644090;220;24780;-76
2021/01/24 02:01:18;;;;;;;0.93;0.60;;;;;;;2.97;99.54;98094.46;639629;221;24762;-75
2021/01/24 02:03:48;;;;;;;0.77;0.77;;;;;;;2.97;99.52;98096.55;642074;221;24757;-76
2021/01/24 02:06:16;;;;;;;0.53;0.53;;;;;;;2.98;99.45;98111.47;645181;221;24779;-74
2021/01/24 02:08:45;;;;;;;0.80;0.80;;;;;;;2.97;98.85;98114.52;634793;225;24837;-75
2021/01/24 02:11:14;;;;;;;0.63;0.63;;;;;;;3.03;98.77;98113.59;640994;221;32195;-74
2021/01/24 02:13:46;;;;;;;1.17;0.70;;;;;;;3.00;98.10;98118.55;646894;220;24764;-74
2021/01/24 02:16:14;;;;;;;0.70;0.70;;;;;;;3.02;97.49;98130.75;642001;221;24811;-74
2021/01/24 02:18:42;;;;;;;0.70;0.70;;;;;;;2.96;97.68;98145.00;642462;221;24817;-74
2021/01/24 02:21:11;;;;;;;1.00;0.80;;;;;;;2.98;95.96;98139.23;638237;221;25967;-74
2021/01/24 02:23:39;;;;;;;0.87;0.60;;;;;;;2.93;96.94;98145.27;639606;222;24781;-76
2021/01/24 02:26:08;;;;;;;0.60;0.60;;;;;;;2.91;97.11;98151.52;641670;222;25205;-76
2021/01/24 02:28:42;;;;;;;0.80;0.80;;;;;;;2.88;97.49;98156.47;645677;221;24791;-76
2021/01/24 02:31:10;;;;;;;1.27;0.80;;;;;;;2.89;97.81;98171.39;640535;221;32268;-76
2021/01/24 02:33:38;;;;;;;0.77;0.77;;;;;;;2.85;97.64;98180.35;643783;221;24788;-75
2021/01/24 02:36:06;;;;;;;1.00;1.00;;;;;;;2.89;96.77;98177.34;644277;221;24767;-76
2021/01/24 02:38:34;;;;;;;1.27;1.03;;;;;;;2.92;96.77;98191.16;643233;222;24894;-76
2021/01/24 02:41:02;;;;;;;1.30;1.30;;;;;;;2.94;95.68;98187.96;632791;225;24849;-75
2021/01/24 02:43:30;;;;;;;2.80;1.53;;;;;;;2.94;95.34;98175.12;638422;224;24771;-76
2021/01/24 02:45:58;;;;;;;1.80;1.70;;;;;;;2.96;94.69;98193.78;647847;220;24798;-75
2021/01/24 02:48:26;;;;;;;2.17;1.97;;;;;;;2.96;94.70;98201.48;641390;221;24787;-76
2021/01/24 02:50:54;;;;;;;2.40;2.00;;;;;;;2.96;94.38;98198.11;639793;221;24816;-76
2021/01/24 02:53:22;;;;;;;2.90;2.57;;;;;;;2.98;93.61;98215.45;631534;226;24837;-76
2021/01/24 02:55:50;;;;;;;2.50;2.30;;;;;;;2.96;93.84;98210.47;642145;221;24963;-75
2021/01/24 02:58:18;;;;;;;2.70;2.50;;;;;;;2.96;93.35;98207.91;635463;225;25899;-76
2021/01/24 03:00:45;;;;;;;3.27;2.80;;;;;;;2.96;93.17;98218.65;644381;220;24956;-75
2021/01/24 03:03:13;;;;;;;4.77;3.13;;;;;;;2.97;93.43;98227.96;645818;221;24798;-75
2021/01/24 03:05:41;;;;;;;3.40;3.10;;;;;;;2.99;92.58;98237.61;635159;225;24858;-75
2021/01/24 03:08:09;;;;;;;3.07;2.70;;;;;;;2.93;92.86;98242.83;646360;221;24789;-75
2021/01/24 03:10:37;;;;;;;3.00;2.80;;;;;;;2.91;92.76;98247.30;637089;224;24796;-76
2021/01/24 03:13:05;;;;;;;3.37;3.07;;;;;;;2.92;92.08;98241.22;628596;225;24821;-76
2021/01/24 03:15:34;;;;;;;4.00;3.00;;;;;;;2.92;90.88;98236.56;643590;221;25092;-76
2021/01/24 03:18:02;;;;;;;4.40;3.97;;;;;;;2.94;91.07;98258.56;638015;224;24802;-75
2021/01/24 03:20:30;;;;;;;3.93;3.53;;;;;;;2.84;91.63;98255.27;640979;221;24806;-76
2021/01/24 03:22:58;;;;;;;4.50;3.63;;;;;;;2.88;91.75;98264.77;637511;224;24813;-76
2021/01/24 03:25:25;;;;;;;4.83;4.00;;;;;;;2.86;91.70;98260.25;644864;220;24822;-75
2021/01/24 03:27:53;;;;;;;5.40;3.80;;;;;;;2.85;91.88;98276.61;642780;221;25852;-76
2021/01/24 03:30:22;;;;;;;5.67;4.20;;;;;;;2.78;91.91;98284.06;642605;222;24773;-75
2021/01/24 03:32:50;;;;;;;3.17;2.87;;;;;;;2.74;91.65;98286.59;644659;221;24766;-74
2021/01/24 03:35:17;;;;;;;4.43;3.43;;;;;;;2.69;92.36;98284.94;632026;225;24819;-74
2021/01/24 03:37:46;;;;;;;4.57;3.70;;;;;;;2.66;91.96;98282.64;630005;225;24849;-74
2021/01/24 03:40:14;;;;;;;4.67;3.53;;;;;;;2.70;92.20;98304.52;643328;221;24802;-74
2021/01/24 03:42:42;;;;;;;4.20;3.40;;;;;;;2.66;91.79;98305.73;630582;225;24851;-73
2021/01/24 03:45:11;;;;;;;4.95;3.72;;;;;;;2.70;90.83;98299.86;636219;222;32684;-74
2021/01/24 03:47:39;;;;;;;5.83;4.17;;;;;;;2.66;90.98;98299.31;626090;226;23713;-74
2021/01/24 03:50:08;;;;;;;5.53;3.90;;;;;;;2.69;90.83;98305.47;627637;225;32686;-76
2021/01/24 03:52:36;;;;;;;4.97;4.03;;;;;;;2.65;89.82;98313.91;642397;221;24151;-76
2021/01/24 03:55:05;;;;;;;3.73;3.03;;;;;;;2.63;89.20;98297.04;638344;222;24816;-75
2021/01/24 03:57:33;;;;;;;6.27;3.30;;;;;;;2.60;89.64;98311.45;627480;225;28027;-76
2021/01/24 04:00:02;;;;;;;4.57;3.60;;;;;;;2.57;89.80;98320.72;639528;221;24807;-76
2021/01/24 04:02:30;;;;;;;3.43;3.13;;;;;;;2.56;89.84;98335.78;636709;225;24805;-75
2021/01/24 04:04:57;;;;;;;4.33;3.33;;;;;;;2.54;89.42;98314.59;635527;225;25874;-75
2021/01/24 04:07:25;;;;;;;3.60;3.10;;;;;;;2.51;89.02;98325.92;640536;222;24800;-75
2021/01/24 04:09:53;;;;;;;3.20;2.90;;;;;;;2.49;89.04;98343.69;630424;225;24846;-76
2021/01/24 04:12:21;;;;;;;4.63;3.50;;;;;;;2.49;89.11;98323.97;629451;225;25036;-75
2021/01/24 04:14:49;;;;;;;3.63;3.07;;;;;;;2.42;88.16;98311.86;644128;221;24808;-75
2021/01/24 04:17:18;;;;;;;5.20;2.67;;;;;;;2.44;87.93;98333.05;638810;222;24836;-74
2021/01/24 04:19:46;;;;;;;3.90;2.57;;;;;;;2.43;87.85;98342.98;649653;216;24826;-75
2021/01/24 04:22:14;;;;;;;8.70;3.23;;;;;;;2.40;87.95;98336.85;646196;221;24813;-76
2021/01/24 04:24:41;;;;;;;3.20;2.50;;;;;;;2.40;87.98;98347.11;638313;225;24815;-74
2021/01/24 04:27:09;;;;;;;4.63;3.20;;;;;;;2.34;88.32;98356.96;639378;224;24778;-74
2021/01/24 04:29:37;;;;;;;5.73;3.27;;;;;;;2.34;87.69;98362.09;639606;223;24790;-76
2021/01/24 04:32:06;;;;;;;5.63;3.30;;;;;;;2.31;87.88;98355.16;638930;225;24842;-76
2021/01/24 04:34:33;;;;;;;7.00;2.77;;;;;;;2.29;88.40;98359.14;630799;226;24978;-76
2021/01/24 04:37:01;;;;;;;3.63;2.73;;;;;;;2.29;87.15;98361.71;641535;221;24822;-76
2021/01/24 04:39:29;;;;;;;3.13;2.30;;;;;;;2.30;86.88;98364.61;638565;222;24828;-74
2021/01/24 04:41:57;;;;;;;6.70;3.03;;;;;;;2.35;85.45;98359.05;632236;225;24811;-76
2021/01/24 04:44:25;;;;;;;3.60;2.40;;;;;;;2.31;86.27;98362.37;633753;225;24818;-76
2021/01/24 04:46:53;;;;;;;3.07;2.30;;;;;;;2.32;85.94;98378.09;642790;221;24868;-76
2021/01/24 04:49:22;;;;;;;6.07;2.80;;;;;;;2.33;85.93;98375.05;645418;221;24840;-75
2021/01/24 04:51:50;;;;;;;3.30;3.00;;;;;;;2.29;85.25;98379.66;644945;221;24810;-76
2021/01/24 04:54:18;;;;;;;4.73;2.60;;;;;;;2.31;85.92;98381.61;645567;221;24791;-75
2021/01/24 04:56:46;;;;;;;4.70;2.50;;;;;;;2.29;85.59;98384.80;629359;225;24839;-75
2021/01/24 04:59:14;;;;;;;4.80;3.60;;;;;;;2.25;86.06;98389.87;631447;225;26929;-75
2021/01/24 05:01:43;;;;;;;4.37;2.57;;;;;;;2.21;85.47;98392.35;639507;221;24810;-75
2021/01/24 05:04:11;;;;;;;3.60;2.45;;;;;;;2.20;85.61;98392.02;626411;225;32828;-76
2021/01/24 05:06:38;;;;;;;4.60;3.00;;;;;;;2.12;84.50;98396.23;640098;221;23683;-74
2021/01/24 05:09:06;;;;;;;3.10;2.50;;;;;;;2.04;84.64;98390.48;630480;226;24894;-74
2021/01/24 05:11:34;;;;;;;4.07;2.70;;;;;;;2.00;84.07;98390.44;632342;225;31302;-75
2021/01/24 05:14:14;;;;;;;5.20;2.30;;;;;;;1.96;84.14;98395.00;641878;221;24883;-75
2021/01/24 05:16:42;;;;;;;3.37;1.83;;;;;;;1.88;84.35;98395.36;639484;222;25113;-75
2021/01/24 05:19:10;;;;;;;2.75;1.80;;;;;;;1.93;82.66;98390.63;635395;221;32698;-76
2021/01/24 05:21:38;;;;;;;3.93;2.30;;;;;;;1.82;83.32;98389.47;632781;225;23680;-75
2021/01/24 05:24:09;;;;;;;3.03;2.37;;;;;;;1.81;84.23;98409.64;639402;222;24799;-76
2021/01/24 05:26:38;;;;;;;2.42;2.00;;;;;;;1.88;83.08;98397.92;635986;221;32674;-76
2021/01/24 05:29:10;;;;;;;3.40;2.40;;;;;;;1.89;83.69;98411.07;639348;221;23726;-74
2021/01/24 05:31:38;;;;;;;2.27;1.90;;;;;;;1.95;83.11;98401.07;642065;220;32688;-75
2021/01/24 05:34:06;;;;;;;2.80;1.90;;;;;;;1.99;81.99;98401.16;625864;225;43877;-75
2021/01/24 05:36:41;;;;;;;2.33;2.07;;;;;;;1.94;82.74;98405.86;646181;221;23694;-76
2021/01/24 05:39:09;;;;;;;3.97;2.30;;;;;;;1.88;83.05;98414.11;632705;225;25213;-75
2021/01/24 05:41:38;;;;;;;3.83;2.17;;;;;;;1.83;83.56;98422.68;645740;221;24816;-75
2021/01/24 05:44:12;;;;;;;2.00;1.80;;;;;;;1.90;82.24;98420.38;634374;221;32935;-75
2021/01/24 05:46:40;;;;;;;2.27;1.60;;;;;;;1.90;82.80;98424.22;637920;224;23693;-76
2021/01/24 05:49:08;;;;;;;3.40;2.10;;;;;;;1.85;82.02;98428.95;621514;226;32870;-75
2021/01/24 05:51:36;;;;;;;2.07;1.80;;;;;;;1.82;82.71;98438.16;631563;225;23769;-75
2021/01/24 05:54:04;;;;;;;2.92;2.08;;;;;;;1.85;82.32;98445.14;622422;225;32823;-74
2021/01/24 05:56:32;;;;;;;2.23;2.00;;;;;;;1.82;83.22;98443.29;631200;226;23754;-75
2021/01/24 05:59:00;;;;;;;3.95;2.33;;;;;;;1.88;82.89;98458.95;640140;221;32704;-75
2021/01/24 06:01:28;;;;;;;3.30;2.10;;;;;;;1.98;83.26;98464.10;629810;225;32747;-75
2021/01/24 06:03:55;;;;;;;2.43;2.20;;;;;;;1.90;83.03;98463.47;630297;225;23730;-75
2021/01/24 06:06:23;;;;;;;2.33;2.10;;;;;;;1.82;83.63;98467.63;640513;221;24844;-75
2021/01/24 06:08:51;;;;;;;3.10;2.80;;;;;;;1.83;83.94;98488.47;632949;225;24926;-76
2021/01/24 06:11:19;;;;;;;2.45;1.90;;;;;;;1.84;84.37;98489.65;636731;221;33006;-75
2021/01/24 06:13:47;;;;;;;2.60;2.17;;;;;;;1.87;84.52;98481.69;626254;225;32761;-76
2021/01/24 06:16:17;;;;;;;3.00;2.70;;;;;;;1.84;84.02;98499.91;644575;221;23736;-75
2021/01/24 06:18:47;;;;;;;3.50;2.25;;;;;;;1.89;84.15;98500.30;635840;223;32770;-75
2021/01/24 06:21:15;;;;;;;2.63;2.37;;;;;;;1.87;84.07;98496.26;638353;225;25770;-75
2021/01/24 06:23:44;;;;;;;2.77;2.53;;;;;;;1.84;83.97;98496.05;644999;220;24809;-75
2021/01/24 06:26:12;;;;;;;6.70;2.67;;;;;;;1.91;84.31;98512.51;639099;221;24810;-75
2021/01/24 06:28:40;;;;;;;6.03;3.00;;;;;;;1.92;84.42;98519.73;642124;221;24832;-75
2021/01/24 06:31:13;;;;;;;3.00;2.60;;;;;;;1.89;84.62;98521.28;639117;222;24822;-75
2021/01/24 06:33:42;;;;;;;3.07;2.80;;;;;;;1.92;84.56;98515.88;631531;225;24828;-75
2021/01/24 06:36:11;;;;;;;6.00;3.30;;;;;;;1.90;85.12;98523.70;630857;225;24858;-76
2021/01/24 06:38:38;;;;;;;5.20;2.92;;;;;;;1.92;84.59;98530.79;630241;225;32797;-76
2021/01/24 06:41:06;;;;;;;3.60;3.27;;;;;;;1.89;85.43;98527.69;640981;222;23782;-75
2021/01/24 06:43:38;;;;;;;4.10;3.37;;;;;;;1.84;86.24;98529.84;639979;221;24799;-75
2021/01/24 06:46:07;;;;;;;3.03;2.60;;;;;;;1.82;86.94;98532.98;633750;224;24887;-76
2021/01/24 06:48:41;;;;;;;3.72;3.00;;;;;;;1.83;87.92;98539.28;632444;225;32967;-74
2021/01/24 06:51:30;;;;;;;4.67;2.63;;;;;;;1.76;88.10;98545.39;643101;221;23720;-75
2021/01/24 06:53:58;;;;;;;5.30;3.02;;;;;;;1.86;87.77;98542.05;631506;225;32673;-75
2021/01/24 06:56:35;;;;;;;4.73;3.10;;;;;;;1.84;88.05;98542.66;637566;224;23673;-75
2021/01/24 06:59:03;;;;;;;4.97;2.92;;;;;;;1.87;88.03;98554.73;633700;221;32727;-75
2021/01/24 07:01:31;;;;;;;4.50;2.80;;;;;;;1.78;88.43;98560.16;636417;225;23677;-74
2021/01/24 07:04:10;;;;;;;4.25;2.92;;;;;;;1.88;87.54;98553.79;621962;225;33134;-74
2021/01/24 07:06:38;;;;;;;3.50;3.20;;;;;;;1.93;86.84;98562.36;633985;222;32684;-75
2021/01/24 07:09:38;;;;;;;4.73;3.17;;;;;;;1.93;86.56;98560.60;629596;225;25905;-75
2021/01/24 07:12:06;;;;;;;3.73;3.30;;;;;;;1.97;85.78;98559.86;646799;221;24804;-75
2021/01/24 07:14:48;;;;;;;3.75;2.90;;;;;;;2.02;86.34;98567.52;636535;221;32730;-75
2021/01/24 07:17:16;;;;;;;3.70;2.93;;;;;;;2.01;86.08;98567.17;626845;225;23706;-75
2021/01/24 07:19:46;;;;;;;4.45;3.10;;;;;;;2.05;85.98;98570.28;622973;225;32967;-75
2021/01/24 07:22:14;;;;;;;5.73;4.00;;;;;;;2.05;85.58;98567.25;642435;221;23703;-73
2021/01/24 07:24:41;;;;;;;3.53;3.20;;;;;;;2.04;84.58;98564.81;648148;221;24812;-74
2021/01/24 07:27:09;;;;;;;4.40;3.10;;;;;;;2.08;85.36;98578.98;630216;225;32733;-75
2021/01/24 07:29:37;;;;;;;3.95;3.08;;;;;;;2.15;84.71;98575.44;624926;225;43640;-77
2021/01/24 07:32:07;;;;;;;7.20;3.40;;;;;;;2.13;84.44;98579.42;647703;221;23661;-74
2021/01/24 07:34:35;;;;;;;3.80;3.27;;;;;;;2.15;84.46;98585.70;624600;226;32788;-74
2021/01/24 07:37:03;;;;;;;4.67;2.97;;;;;;;2.14;83.84;98585.36;634528;225;24850;-75
2021/01/24 07:39:31;;;;;;;4.22;2.80;;;;;;;2.17;84.04;98579.95;623687;225;33095;-75
2021/01/24 07:41:59;;;;;;;3.90;3.20;;;;;;;2.18;84.80;98580.30;640968;221;23669;-75
2021/01/24 07:44:27;;;;;;;5.50;3.00;;;;;;;2.22;84.17;98593.99;636027;222;32704;-75
2021/01/24 07:46:55;;;;;;;3.20;2.70;;;;;;;2.14;83.92;98594.33;631254;225;32738;-75
2021/01/24 07:49:23;;;;;;;5.53;3.23;;;;;;;2.06;85.32;98609.88;644895;221;23685;-75
2021/01/24 07:51:51;;;;;;;3.90;3.07;;;;;;;1.89;87.80;98629.73;642128;221;24832;-75
2021/01/24 07:54:19;;;;;;;9.13;3.30;;;;;;;1.69;89.91;98636.55;622364;225;32835;-75
2021/01/24 07:56:47;;;;;;;5.65;3.42;;;;;;;1.70;91.58;98658.67;642308;220;32999;-75
2021/01/24 07:59:15;;;;;;;3.60;3.03;;;;;;;1.71;91.82;98662.04;645780;220;23678;-75
2021/01/24 08:01:43;;;;;;;3.17;2.87;;;;;;;1.57;91.93;98655.97;643895;220;24794;-75
2021/01/24 08:04:11;;;;;;;5.30;3.37;;;;;;;1.64;92.19;98663.00;627035;225;32850;-74
2021/01/24 08:06:39;;;;;;;4.50;3.03;;;;;;;1.66;92.12;98657.28;644919;222;23678;-75
2021/01/24 08:09:07;;;;;;;4.97;3.17;;;;;;;1.72;91.31;98663.19;630160;224;32757;-75
2021/01/24 08:11:35;;;;;;;5.60;4.20;;;;;;;1.72;92.16;98661.91;639486;224;24897;-75
2021/01/24 08:14:03;;;;;;;4.35;3.40;;;;;;;1.77;91.61;98668.73;622803;224;33922;-75
2021/01/24 08:16:32;;;;;;;4.30;3.40;;;;;;;1.72;92.07;98667.50;635065;221;32697;-75
2021/01/24 08:18:59;;;;;;;4.20;2.87;;;;;;;1.60;93.11;98668.05;633146;225;23721;-74
2021/01/24 08:21:27;;;;;;;5.80;3.03;;;;;;;1.67;93.79;98672.99;635032;225;24930;-74
2021/01/24 08:23:54;;;;;;;4.00;3.30;;;;;;;1.74;93.00;98677.97;623066;225;32848;-75
2021/01/24 08:26:22;;;;;;;4.47;2.70;;;;;;;1.73;91.68;98680.19;633044;225;23704;-75
2021/01/24 08:28:50;;;;;;;5.80;3.00;;;;;;;1.82;90.61;98670.91;622751;225;32913;-75
2021/01/24 08:31:19;;;;;;;8.30;3.40;;;;;;;1.85;90.59;98682.67;645708;221;23733;-74
2021/01/24 08:33:47;;;;;;;4.30;3.20;;;;;;;1.92;90.29;98684.58;631498;226;24805;-75
2021/01/24 08:36:17;;;;;;;5.10;3.30;;;;;;;1.94;89.70;98678.05;643055;221;32713;-75
2021/01/24 08:38:46;;;;;;;5.60;3.37;;;;;;;1.97;89.40;98670.93;627687;225;23703;-75
2021/01/24 08:41:14;;;;;;;3.83;2.90;;;;;;;2.02;88.60;98676.94;628485;225;32892;-75
2021/01/24 08:43:42;;;;;;;3.53;3.20;;;;;;;2.05;88.21;98673.64;632214;225;23754;-75
2021/01/24 08:46:21;;;;;;;4.83;2.95;;;;;;;2.11;88.37;98679.99;624177;225;32849;-75
2021/01/24 08:48:58;;;;;;;5.20;2.90;;;;;;;2.09;87.35;98692.14;643559;221;27901;-75
2021/01/24 08:51:26;;;;;;;3.23;2.80;;;;;;;2.14;87.06;98682.80;630147;225;24855;-75
2021/01/24 08:53:54;;;;;;;3.80;2.92;;;;;;;2.19;86.66;98684.02;626359;225;32836;-75
2021/01/24 08:56:22;;;;;;;3.00;2.60;;;;;;;2.17;85.91;98691.03;626242;226;23702;-76
2021/01/24 08:58:50;;;;;;;3.20;2.90;;;;;;;2.23;86.13;98684.09;640403;220;32755;-75
2021/01/24 09:01:18;;;;;;;4.80;2.90;;;;;;;2.29;86.48;98697.69;627631;226;33019;-75
2021/01/24 09:03:47;;;;;;;4.35;3.27;;;;;;;2.29;86.07;98704.10;627938;225;32840;-75
2021/01/24 09:06:16;;;;;;;2.83;2.50;;;;;;;2.26;85.59;98696.67;641363;221;23660;-75
2021/01/24 09:08:46;;;;;;;4.30;2.80;;;;;;;2.30;85.42;98702.34;639576;220;32873;-76
2021/01/24 09:11:15;;;;;;;4.07;2.73;;;;;;;2.31;85.53;98708.62;637317;221;32722;-76
2021/01/24 09:13:43;;;;;;;5.67;2.80;;;;;;;2.43;86.37;98711.09;634322;221;32754;-75
2021/01/24 09:16:11;;;;;;;2.93;2.60;;;;;;;2.41;85.29;98709.14;631548;226;23706;-75
2021/01/24 09:18:39;;;;;;;2.83;2.40;;;;;;;2.40;84.87;98710.09;633101;225;24857;-75
2021/01/24 09:21:07;;;;;;;3.13;2.83;;;;;;;2.37;85.00;98712.41;640731;221;24785;-75
2021/01/24 09:23:35;;;;;;;3.53;2.90;;;;;;;2.43;85.27;98718.32;642919;221;26932;-75
2021/01/24 09:26:04;;;;;;;3.63;2.83;;;;;;;2.47;84.39;98713.73;635952;226;24841;-75
2021/01/24 09:28:32;;;;;;;3.10;2.67;;;;;;;2.46;83.41;98709.55;643569;221;24807;-75
2021/01/24 09:31:00;;;;;;;3.70;2.13;;;;;;;2.57;84.75;98724.38;645453;221;24796;-76
2021/01/24 09:33:27;;;;;;;2.30;2.10;;;;;;;2.55;83.50;98720.31;637742;221;24921;-76
2021/01/24 09:35:55;;;;;;;4.40;2.67;;;;;;;2.57;84.30;98724.38;634400;225;24807;-76
2021/01/24 09:38:23;;;;;;;8.63;2.93;;;;;;;2.64;83.19;98717.75;638847;221;24812;-76
2021/01/24 09:40:51;;;;;;;3.00;2.43;;;;;;;2.61;82.10;98721.06;644455;221;24874;-75
2021/01/24 09:43:19;;;;;;;3.05;2.42;;;;;;;2.66;83.46;98731.27;638838;221;32676;-76
2021/01/24 09:45:49;;;;;;;6.63;2.70;;;;;;;2.66;81.67;98734.30;629236;226;23696;-75
2021/01/24 09:48:17;;;;;;;6.13;3.27;;;;;;;2.67;81.82;98738.05;648119;221;25104;-75
2021/01/24 09:50:45;;;;;;;6.07;3.10;;;;;;;2.70;81.44;98736.16;648003;221;24761;-75
2021/01/24 09:53:13;;;;;;;3.57;2.70;;;;;;;2.68;81.61;98750.41;635593;225;24816;-75
2021/01/24 09:55:41;;;;;;;4.57;2.47;;;;;;;2.70;81.52;98747.23;646095;221;25165;-75
2021/01/24 09:58:09;;;;;;;3.98;2.70;;;;;;;2.79;82.14;98762.30;636909;221;32683;-76
2021/01/24 10:00:36;;;;;;;3.50;3.07;;;;;;;2.82;81.18;98768.00;626218;225;23692;-75
2021/01/24 10:03:05;;;;;;;3.70;3.40;;;;;;;2.76;81.64;98768.52;632260;225;24814;-76
2021/01/24 10:05:33;;;;;;;5.00;2.77;;;;;;;2.72;81.58;98781.75;643857;221;24807;-76
2021/01/24 10:08:01;;;;;;;91.83;52.73;;;;;;;2.80;82.43;98784.45;627791;225;24868;-76
2021/01/24 10:10:29;;;;;;;2.97;2.50;;;;;;;2.79;81.79;98784.12;646108;221;24791;-76
2021/01/24 10:12:57;;;;;;;4.10;2.20;;;;;;;2.67;80.92;98771.41;630290;226;24871;-76
2021/01/24 10:15:25;;;;;;;6.07;4.20;;;;;;;2.71;81.00;98786.55;627435;225;25140;-76
2021/01/24 10:17:53;;;;;;;18.30;11.43;;;;;;;2.72;81.24;98790.73;640468;220;24894;-76
2021/01/24 10:20:21;;;;;;;26.53;14.60;;;;;;;2.71;80.92;98793.77;632059;224;24836;-76
2021/01/24 10:22:49;;;;;;;3.27;2.30;;;;;;;2.74;81.03;98790.94;627699;225;28055;-76
2021/01/24 10:25:17;;;;;;;33.33;25.20;;;;;;;2.78;81.69;98796.14;640632;220;24805;-76
2021/01/24 10:27:45;;;;;;;5.50;4.10;;;;;;;2.83;81.42;98796.58;635994;225;24870;-76
2021/01/24 10:30:15;;;;;;;5.03;4.63;;;;;;;2.89;81.31;98800.36;632656;225;25117;-77
2021/01/24 10:32:43;;;;;;;3.90;1.77;;;;;;;2.83;80.31;98798.34;641781;221;28059;-76
2021/01/24 10:35:11;;;;;;;2.73;1.70;;;;;;;2.88;80.48;98801.31;628232;226;24827;-75
2021/01/24 10:37:39;;;;;;;1.70;1.40;;;;;;;2.89;80.31;98804.22;646748;221;24833;-75
2021/01/24 10:40:09;;;;;;;2.30;2.10;;;;;;;2.91;80.15;98802.33;633572;225;24785;-75
2021/01/24 10:42:38;;;;;;;4.00;3.20;;;;;;;2.86;79.72;98796.31;638617;223;26207;-76
2021/01/24 10:45:07;;;;;;;3.70;2.30;;;;;;;2.97;79.18;98819.79;622366;225;32833;-75
2021/01/24 10:47:35;;;;;;;2.40;2.07;;;;;;;2.92;79.68;98809.89;627921;226;23763;-76
2021/01/24 10:50:04;;;;;;;3.60;2.23;;;;;;;2.86;79.58;98818.13;642577;221;24819;-75
2021/01/24 10:52:32;;;;;;;3.53;2.77;;;;;;;2.90;81.01;98823.34;644034;221;25037;-76
2021/01/24 10:54:59;;;;;;;3.42;2.15;;;;;;;2.90;80.02;98819.48;622501;225;33090;-76
2021/01/24 10:57:27;;;;;;;2.63;2.33;;;;;;;2.93;80.18;98816.65;632479;225;23679;-76
2021/01/24 10:59:55;;;;;;;3.70;2.00;;;;;;;2.89;79.74;98819.15;634376;225;24927;-76
2021/01/24 11:02:23;;;;;;;4.07;2.00;;;;;;;2.92;79.85;98820.16;639339;221;24790;-76
2021/01/24 11:04:51;;;;;;;3.33;2.50;;;;;;;3.01;80.01;98816.48;640532;221;26974;-76
2021/01/24 11:07:19;;;;;;;55.50;50.23;;;;;;;3.14;80.15;98805.49;646530;221;24835;-76
2021/01/24 11:09:48;;;;;;;9.33;8.50;;;;;;;3.28;80.09;98819.23;641319;221;24798;-76
2021/01/24 11:12:16;;;;;;;13.27;7.00;;;;;;;3.40;79.43;98816.89;643387;221;25076;-76
2021/01/24 11:14:44;;;;;;;16.53;8.97;;;;;;;3.64;78.66;98816.46;646857;221;24818;-76
2021/01/24 11:17:12;;;;;;;343.67;139.70;;;;;;;4.03;78.93;98819.01;643565;221;25917;-76
2021/01/24 11:19:40;;;;;;;208.03;127.57;;;;;;;4.40;77.17;98807.48;629232;225;24858;-76
2021/01/24 11:22:09;;;;;;;83.23;54.53;;;;;;;4.76;76.30;98804.06;629883;226;24808;-76
2021/01/24 11:24:37;;;;;;;324.00;247.60;;;;;;;4.77;75.96;98794.09;632307;225;24825;-76
2021/01/24 11:27:07;;;;;;;408.53;320.20;;;;;;;5.16;75.90;98804.19;631699;225;28069;-77
2021/01/24 11:29:33;;;;;;;592.17;456.30;;;;;;;5.13;73.30;98795.46;639625;221;24830;-76
2021/01/24 11:32:01;;;;;;;1094.43;746.37;;;;;;;5.08;75.24;98809.75;643030;220;26046;-76
2021/01/24 11:34:29;;;;;;;570.17;420.87;;;;;;;5.18;72.88;98806.61;638479;221;32949;-76
2021/01/24 11:36:57;;;;;;;1048.25;740.38;;;;;;;5.58;73.26;98807.48;635552;220;32820;-75
2021/01/24 11:39:27;;;;;;;691.20;481.25;;;;;;;5.45;73.25;98817.35;627421;226;32981;-75
2021/01/24 11:41:54;;;;;;;9.03;6.50;;;;;;;4.95;72.99;98804.94;632525;225;23715;-77
2021/01/24 11:44:23;;;;;;;22.90;14.33;;;;;;;5.02;73.86;98811.13;629723;225;24834;-76